createdAt,value
2023-04-27T00:00:25.674Z,9.09
2023-04-27T00:01:26.514Z,9.02
2023-04-27T00:02:27.603Z,9.03
2023-04-27T00:03:28.133Z,9.16
2023-04-27T00:04:28.718Z,9.13
2023-04-27T00:05:28.388Z,9.18
2023-04-27T00:06:29.221Z,9.18
2023-04-27T00:07:29.181Z,9.24
2023-04-27T00:08:30.076Z,9.22
2023-04-27T00:09:31.052Z,9.22
2023-04-27T00:10:30.765Z,9.24
2023-04-27T00:11:31.357Z,9.24
2023-04-27T00:12:32.049Z,9.24
2023-04-27T00:13:32.791Z,9.3
2023-04-27T00:14:33.497Z,9.29
2023-04-27T00:15:34.201Z,9.36
2023-04-27T00:16:35.353Z,9.27
2023-04-27T00:17:35.371Z,9.39
2023-04-27T00:18:35.423Z,9.26
2023-04-27T00:19:36.394Z,9.33
2023-04-27T00:20:37.306Z,9.26
2023-04-27T00:21:37.903Z,9.29
2023-04-27T00:22:38.409Z,9.33
2023-04-27T00:23:39.093Z,9.39
2023-04-27T00:24:40.052Z,9.22
2023-04-27T00:25:40.542Z,9.29
2023-04-27T00:26:41.056Z,9.26
2023-04-27T00:27:41.653Z,9.3
2023-04-27T00:28:41.795Z,9.29
2023-04-27T00:29:42.495Z,9.27
2023-04-27T00:30:43.002Z,9.27
2023-04-27T00:31:43.675Z,9.26
2023-04-27T00:32:44.424Z,9.3
2023-04-27T00:33:45.489Z,9.24
2023-04-27T00:34:45.988Z,9.33
2023-04-27T00:35:46.662Z,9.16
2023-04-27T00:36:47.205Z,9.3
2023-04-27T00:37:47.095Z,9.3
2023-04-27T00:38:47.589Z,9.16
2023-04-27T00:39:48.641Z,9.29
2023-04-27T00:40:48.926Z,9.33
2023-04-27T00:41:49.546Z,9.16
2023-04-27T00:42:50.082Z,9.16
2023-04-27T00:43:50.406Z,9.21
2023-04-27T00:44:50.698Z,9.21
2023-04-27T00:45:51.844Z,9.13
2023-04-27T00:46:52.297Z,9.09
2023-04-27T00:47:53.288Z,9.09
2023-04-27T00:48:54.085Z,9.16
2023-04-27T00:49:54.856Z,9.09
2023-04-27T00:50:55.363Z,9.03
2023-04-27T00:51:55.746Z,9.13
2023-04-27T00:52:56.031Z,9.13
2023-04-27T00:53:56.934Z,9.11
2023-04-27T00:54:57.756Z,9.13
2023-04-27T00:55:57.892Z,9.18
2023-04-27T00:56:58.671Z,9.21
2023-04-27T00:57:59.166Z,9.15
2023-04-27T00:58:59.665Z,9.16
2023-04-27T01:00:00.646Z,9.27
2023-04-27T01:01:01.304Z,9.24
2023-04-27T01:02:02.458Z,9.22
2023-04-27T01:03:03.543Z,9.24
2023-04-27T01:04:04.318Z,9.21
2023-04-27T01:05:04.571Z,9.3
2023-04-27T01:06:04.876Z,9.27
2023-04-27T01:07:05.366Z,9.24
2023-04-27T01:08:06.639Z,9.16
2023-04-27T01:09:07.927Z,9.3
2023-04-27T01:10:08.224Z,9.29
2023-04-27T01:11:08.665Z,9.27
2023-04-27T01:12:09.731Z,9.27
2023-04-27T01:13:10.229Z,9.16
2023-04-27T01:14:10.554Z,9.13
2023-04-27T01:15:11.041Z,9.15
2023-04-27T01:16:11.320Z,9.22
2023-04-27T01:17:12.266Z,9.21
2023-04-27T01:18:12.409Z,9.22
2023-04-27T01:19:13.407Z,9.11
2023-04-27T01:20:13.307Z,9.12
2023-04-27T01:21:14.111Z,9.19
2023-04-27T01:22:14.357Z,9.05
2023-04-27T01:23:17.434Z,9.11
2023-04-27T01:24:15.085Z,9.11
2023-04-27T01:25:15.831Z,9.11
2023-04-27T01:26:16.797Z,9.09
2023-04-27T01:27:17.577Z,9.09
2023-04-27T01:28:18.454Z,9.15
2023-04-27T01:29:19.579Z,9.08
2023-04-27T01:30:20.255Z,9.02
2023-04-27T01:31:20.574Z,9.03
2023-04-27T01:32:21.500Z,9.13
2023-04-27T01:33:22.560Z,9.13
2023-04-27T01:34:22.626Z,9.11
2023-04-27T01:35:22.535Z,9.16
2023-04-27T01:36:22.875Z,9.02
2023-04-27T01:37:23.778Z,9.05
2023-04-27T01:38:24.319Z,9
2023-04-27T01:39:24.854Z,9.12
2023-04-27T01:40:25.809Z,9.03
2023-04-27T01:41:25.742Z,9.08
2023-04-27T01:42:26.133Z,9.09
2023-04-27T01:43:26.815Z,9.08
2023-04-27T01:44:27.762Z,9.03
2023-04-27T01:45:28.455Z,9.05
2023-04-27T01:46:29.458Z,9.13
2023-04-27T01:47:29.504Z,9.16
2023-04-27T01:48:30.270Z,9.09
2023-04-27T01:49:31.026Z,9.15
2023-04-27T01:50:31.944Z,9.21
2023-04-27T01:51:33.064Z,9.26
2023-04-27T01:52:33.301Z,9.27
2023-04-27T01:53:34.241Z,9.21
2023-04-27T01:54:34.808Z,9.29
2023-04-27T01:55:35.575Z,9.24
2023-04-27T01:56:36.466Z,9.31
2023-04-27T01:57:36.978Z,9.36
2023-04-27T01:58:38.119Z,9.33
2023-04-27T01:59:38.028Z,9.29
2023-04-27T02:00:38.365Z,9.3
2023-04-27T02:01:38.834Z,9.29
2023-04-27T02:02:40.026Z,9.3
2023-04-27T02:03:41.156Z,9.29
2023-04-27T02:04:42.071Z,9.29
2023-04-27T02:05:42.065Z,9.24
2023-04-27T02:06:42.758Z,9.16
2023-04-27T02:07:43.673Z,9.21
2023-04-27T02:08:44.182Z,9.09
2023-04-27T02:09:44.864Z,9.09
2023-04-27T02:10:45.611Z,9.12
2023-04-27T02:11:46.734Z,9.12
2023-04-27T02:12:47.785Z,9.13
2023-04-27T02:13:48.501Z,9.05
2023-04-27T02:14:49.057Z,9.05
2023-04-27T02:15:49.681Z,9.09
2023-04-27T02:16:49.541Z,9.03
2023-04-27T02:17:50.240Z,9.09
2023-04-27T02:18:51.097Z,9.13
2023-04-27T02:19:51.416Z,9
2023-04-27T02:20:52.113Z,9.09
2023-04-27T02:21:52.594Z,9.03
2023-04-27T02:22:53.277Z,9.09
2023-04-27T02:23:54.218Z,9.13
2023-04-27T02:24:55.323Z,9.02
2023-04-27T02:25:56.284Z,9.11
2023-04-27T02:26:56.581Z,9.11
2023-04-27T02:27:58.716Z,9.08
2023-04-27T02:28:58.786Z,9.13
2023-04-27T02:29:59.700Z,9.16
2023-04-27T02:30:59.663Z,9.24
2023-04-27T02:32:00.172Z,9.19
2023-04-27T02:33:00.464Z,9.26
2023-04-27T02:34:00.627Z,9.21
2023-04-27T02:35:01.357Z,9.22
2023-04-27T02:36:02.034Z,9.26
2023-04-27T02:37:02.910Z,9.29
2023-04-27T02:38:03.820Z,9.22
2023-04-27T02:39:04.320Z,9.3
2023-04-27T02:40:05.330Z,9.31
2023-04-27T02:41:06.487Z,9.29
2023-04-27T02:42:07.175Z,9.26
2023-04-27T02:43:07.931Z,9.24
2023-04-27T02:44:08.434Z,9.3
2023-04-27T02:45:08.961Z,9.26
2023-04-27T02:46:09.641Z,9.24
2023-04-27T02:47:09.692Z,9.21
2023-04-27T02:48:10.778Z,9.19
2023-04-27T02:49:11.265Z,9.24
2023-04-27T02:50:12.170Z,9.09
2023-04-27T02:51:12.693Z,9.15
2023-04-27T02:52:13.188Z,9.12
2023-04-27T02:53:13.213Z,9.08
2023-04-27T02:54:13.494Z,9.11
2023-04-27T02:55:13.996Z,9.16
2023-04-27T02:56:14.806Z,9.08
2023-04-27T02:57:15.270Z,9.18
2023-04-27T02:58:16.223Z,9.13
2023-04-27T02:59:17.240Z,9.02
2023-04-27T03:00:17.389Z,9.11
2023-04-27T03:01:17.906Z,9.13
2023-04-27T03:02:19.051Z,9.12
2023-04-27T03:03:20.369Z,9.13
2023-04-27T03:04:20.996Z,9.09
2023-04-27T03:05:21.072Z,9.09
2023-04-27T03:06:21.551Z,9.09
2023-04-27T03:07:22.080Z,9.08
2023-04-27T03:08:23.030Z,9.09
2023-04-27T03:09:23.637Z,9.08
2023-04-27T03:10:24.156Z,9.08
2023-04-27T03:11:23.894Z,9.08
2023-04-27T03:12:24.334Z,9.09
2023-04-27T03:13:24.866Z,9.09
2023-04-27T03:14:25.378Z,9
2023-04-27T03:15:26.262Z,9.09
2023-04-27T03:16:26.061Z,9
2023-04-27T03:17:26.787Z,9.09
2023-04-27T03:18:27.652Z,9.12
2023-04-27T03:19:28.134Z,9.08
2023-04-27T03:20:28.860Z,9.05
2023-04-27T03:21:28.995Z,8.99
2023-04-27T03:22:29.308Z,9.11
2023-04-27T03:23:29.957Z,8.96
2023-04-27T03:24:30.273Z,9.02
2023-04-27T03:25:31.009Z,9.03
2023-04-27T03:26:31.872Z,9.08
2023-04-27T03:27:33.001Z,9
2023-04-27T03:28:33.889Z,8.97
2023-04-27T03:29:34.394Z,9.05
2023-04-27T03:30:34.979Z,9.03
2023-04-27T03:31:35.815Z,9.02
2023-04-27T03:32:36.714Z,9
2023-04-27T03:33:37.831Z,9.02
2023-04-27T03:34:37.730Z,8.96
2023-04-27T03:35:38.228Z,9.02
2023-04-27T03:36:38.719Z,9.03
2023-04-27T03:37:39.390Z,8.99
2023-04-27T03:38:39.909Z,9.03
2023-04-27T03:39:40.192Z,9.05
2023-04-27T03:40:40.685Z,9.03
2023-04-27T03:41:41.428Z,9.05
2023-04-27T03:42:42.781Z,9.08
2023-04-27T03:43:43.199Z,9.09
2023-04-27T03:44:44.076Z,8.97
2023-04-27T03:45:44.875Z,9.05
2023-04-27T03:46:45.475Z,9.03
2023-04-27T03:47:46.390Z,9.08
2023-04-27T03:48:47.021Z,9.02
2023-04-27T03:49:46.715Z,9.03
2023-04-27T03:50:47.464Z,9.03
2023-04-27T03:51:48.063Z,8.95
2023-04-27T03:52:48.779Z,9.11
2023-04-27T03:53:49.001Z,9.05
2023-04-27T03:54:49.692Z,9.08
2023-04-27T03:55:50.194Z,9
2023-04-27T03:56:51.002Z,8.97
2023-04-27T03:57:51.501Z,9.08
2023-04-27T03:58:51.999Z,9.11
2023-04-27T03:59:52.708Z,9.08
2023-04-27T04:00:53.217Z,9.03
2023-04-27T04:01:54.067Z,9.05
2023-04-27T04:02:55.467Z,9
2023-04-27T04:03:55.549Z,9.11
2023-04-27T04:04:56.552Z,9.02
2023-04-27T04:05:56.786Z,9.12
2023-04-27T04:06:57.477Z,9
2023-04-27T04:07:58.184Z,9.08
2023-04-27T04:08:58.886Z,9.11
2023-04-27T04:09:59.548Z,9.11
2023-04-27T04:11:00.042Z,9.09
2023-04-27T04:12:01.004Z,9.03
2023-04-27T04:13:01.520Z,9.05
2023-04-27T04:14:01.792Z,9.13
2023-04-27T04:15:02.505Z,9.08
2023-04-27T04:16:03.255Z,9.12
2023-04-27T04:17:03.799Z,9.13
2023-04-27T04:18:04.539Z,9.13
2023-04-27T04:19:05.384Z,9.13
2023-04-27T04:20:05.275Z,9.11
2023-04-27T04:21:05.997Z,9.11
2023-04-27T04:22:05.717Z,9.12
2023-04-27T04:23:06.240Z,9.15
2023-04-27T04:24:07.047Z,9.24
2023-04-27T04:25:07.525Z,9.21
2023-04-27T04:26:08.149Z,9.26
2023-04-27T04:27:08.874Z,9.19
2023-04-27T04:28:09.581Z,9.24
2023-04-27T04:29:11.898Z,9.16
2023-04-27T04:30:10.800Z,9.29
2023-04-27T04:31:11.478Z,9.18
2023-04-27T04:32:12.044Z,9.19
2023-04-27T04:33:12.722Z,9.19
2023-04-27T04:34:14.011Z,9.16
2023-04-27T04:35:14.691Z,9.16
2023-04-27T04:36:15.876Z,9.12
2023-04-27T04:37:15.820Z,9.15
2023-04-27T04:38:16.324Z,9.11
2023-04-27T04:39:17.577Z,9.12
2023-04-27T04:40:17.082Z,9.12
2023-04-27T04:41:18.207Z,9.09
2023-04-27T04:42:18.950Z,9.03
2023-04-27T04:43:19.461Z,9.13
2023-04-27T04:44:19.688Z,9.19
2023-04-27T04:45:20.593Z,9.08
2023-04-27T04:46:21.430Z,9.11
2023-04-27T04:47:22.473Z,9.24
2023-04-27T04:48:23.254Z,9.22
2023-04-27T04:49:23.182Z,9.27
2023-04-27T04:50:24.461Z,9.16
2023-04-27T04:51:24.438Z,9.13
2023-04-27T04:52:25.167Z,9.22
2023-04-27T04:53:25.649Z,9.19
2023-04-27T04:55:26.134Z,9.21
2023-04-27T04:56:26.640Z,9.16
2023-04-27T04:57:27.569Z,9.26
2023-04-27T04:58:27.666Z,9.19
2023-04-27T04:59:32.002Z,9.26
2023-04-27T05:00:29.040Z,9.27
2023-04-27T05:01:29.379Z,9.24
2023-04-27T05:02:30.300Z,9.21
2023-04-27T05:03:30.879Z,9.24
2023-04-27T05:04:31.732Z,9.3
2023-04-27T05:05:31.381Z,9.27
2023-04-27T05:06:31.703Z,9.29
2023-04-27T05:07:32.203Z,9.31
2023-04-27T05:08:32.515Z,9.33
2023-04-27T05:09:33.087Z,9.37
2023-04-27T05:10:33.588Z,9.37
2023-04-27T05:11:34.125Z,9.33
2023-04-27T05:12:34.848Z,9.36
2023-04-27T05:13:35.599Z,9.3
2023-04-27T05:14:36.174Z,9.33
2023-04-27T05:15:36.280Z,9.29
2023-04-27T05:16:37.069Z,9.34
2023-04-27T05:17:37.939Z,9.31
2023-04-27T05:18:38.412Z,9.33
2023-04-27T05:19:39.546Z,9.36
2023-04-27T05:20:40.085Z,9.34
2023-04-27T05:21:40.937Z,9.31
2023-04-27T05:22:41.863Z,9.4
2023-04-27T05:23:41.952Z,9.42
2023-04-27T05:24:42.465Z,9.36
2023-04-27T05:25:43.568Z,9.37
2023-04-27T05:26:44.473Z,9.36
2023-04-27T05:27:45.243Z,9.4
2023-04-27T05:28:46.144Z,9.39
2023-04-27T05:29:46.279Z,9.37
2023-04-27T05:30:47.175Z,9.37
2023-04-27T05:31:47.849Z,9.34
2023-04-27T05:32:48.817Z,9.4
2023-04-27T05:33:49.419Z,9.39
2023-04-27T05:34:50.190Z,9.37
2023-04-27T05:35:50.662Z,9.39
2023-04-27T05:36:51.368Z,9.44
2023-04-27T05:37:51.683Z,9.4
2023-04-27T05:38:51.982Z,9.36
2023-04-27T05:39:52.637Z,9.37
2023-04-27T05:40:55.589Z,9.36
2023-04-27T05:41:53.433Z,9.36
2023-04-27T05:42:53.703Z,9.4
2023-04-27T05:43:54.080Z,9.33
2023-04-27T05:44:55.510Z,9.36
2023-04-27T05:45:55.569Z,9.37
2023-04-27T05:46:56.790Z,9.34
2023-04-27T05:47:57.411Z,9.34
2023-04-27T05:48:58.215Z,9.45
2023-04-27T05:49:59.176Z,9.48
2023-04-27T05:50:59.456Z,9.51
2023-04-27T05:52:00.375Z,9.49
2023-04-27T05:53:00.864Z,9.56
2023-04-27T05:54:01.357Z,9.48
2023-04-27T05:55:02.381Z,9.49
2023-04-27T05:56:02.896Z,9.54
2023-04-27T05:57:03.597Z,9.54
2023-04-27T05:58:12.751Z,9.58
2023-04-27T06:00:05.504Z,9.58
2023-04-27T06:01:05.417Z,9.59
2023-04-27T06:02:06.309Z,9.54
2023-04-27T06:03:06.812Z,9.47
2023-04-27T06:04:07.970Z,9.48
2023-04-27T06:05:08.570Z,9.49
2023-04-27T06:06:09.383Z,9.39
2023-04-27T06:07:10.826Z,9.48
2023-04-27T06:08:11.057Z,9.45
2023-04-27T06:09:11.054Z,9.44
2023-04-27T06:10:11.913Z,9.45
2023-04-27T06:11:12.847Z,9.48
2023-04-27T06:12:13.149Z,9.47
2023-04-27T06:13:13.923Z,9.47
2023-04-27T06:14:14.462Z,9.52
2023-04-27T06:15:14.693Z,9.55
2023-04-27T06:16:15.732Z,9.52
2023-04-27T06:17:16.261Z,9.58
2023-04-27T06:18:17.072Z,9.55
2023-04-27T06:19:18.249Z,9.64
2023-04-27T06:20:19.002Z,9.7
2023-04-27T06:21:19.569Z,9.64
2023-04-27T06:22:20.474Z,9.58
2023-04-27T06:23:20.409Z,9.51
2023-04-27T06:24:21.468Z,9.59
2023-04-27T06:25:24.427Z,9.66
2023-04-27T06:26:23.152Z,9.63
2023-04-27T06:27:23.921Z,9.66
2023-04-27T06:28:24.943Z,9.67
2023-04-27T06:29:25.273Z,9.7
2023-04-27T06:30:25.628Z,9.66
2023-04-27T06:31:26.520Z,9.64
2023-04-27T06:32:26.577Z,9.69
2023-04-27T06:33:27.611Z,9.73
2023-04-27T06:34:28.127Z,9.76
2023-04-27T06:35:29.128Z,9.73
2023-04-27T06:36:30.041Z,9.69
2023-04-27T06:37:30.575Z,9.76
2023-04-27T06:38:31.072Z,9.72
2023-04-27T06:39:31.959Z,9.74
2023-04-27T06:40:32.939Z,9.63
2023-04-27T06:41:33.653Z,9.69
2023-04-27T06:42:34.466Z,9.7
2023-04-27T06:43:35.246Z,9.63
2023-04-27T06:44:35.734Z,9.58
2023-04-27T06:45:36.288Z,9.62
2023-04-27T06:46:37.266Z,9.64
2023-04-27T06:47:38.204Z,9.63
2023-04-27T06:48:38.394Z,9.69
2023-04-27T06:49:39.108Z,9.7
2023-04-27T06:50:40.259Z,9.67
2023-04-27T06:51:40.356Z,9.72
2023-04-27T06:52:41.258Z,9.73
2023-04-27T06:53:41.824Z,9.72
2023-04-27T06:54:42.249Z,9.72
2023-04-27T06:55:46.245Z,9.76
2023-04-27T06:56:43.275Z,9.87
2023-04-27T06:57:43.782Z,9.87
2023-04-27T06:58:43.772Z,9.82
2023-04-27T06:59:44.486Z,9.9
2023-04-27T07:00:45.437Z,9.85
2023-04-27T07:01:45.701Z,9.9
2023-04-27T07:02:46.068Z,9.85
2023-04-27T07:03:46.563Z,9.84
2023-04-27T07:04:46.949Z,9.84
2023-04-27T07:05:48.084Z,9.94
2023-04-27T07:06:48.785Z,9.92
2023-04-27T07:07:50.160Z,9.95
2023-04-27T07:08:50.522Z,9.95
2023-04-27T07:09:51.239Z,10.02
2023-04-27T07:10:52.158Z,10.07
2023-04-27T07:11:53.101Z,10.06
2023-04-27T07:12:53.582Z,10.02
2023-04-27T07:13:54.263Z,10.03
2023-04-27T07:14:55.152Z,10.03
2023-04-27T07:15:55.727Z,10.12
2023-04-27T07:16:56.430Z,10.15
2023-04-27T07:17:57.523Z,10.17
2023-04-27T07:18:58.015Z,10.1
2023-04-27T07:19:58.948Z,10.17
2023-04-27T07:20:59.950Z,10.2
2023-04-27T07:22:00.652Z,10.3
2023-04-27T07:23:01.650Z,10.23
2023-04-27T07:24:02.383Z,10.23
2023-04-27T07:25:03.491Z,10.38
2023-04-27T07:26:03.539Z,10.38
2023-04-27T07:27:04.051Z,10.31
2023-04-27T07:28:04.763Z,10.38
2023-04-27T07:29:26.809Z,10.49
2023-04-27T07:31:07.477Z,10.39
2023-04-27T07:32:08.062Z,10.43
2023-04-27T07:33:08.199Z,10.42
2023-04-27T07:34:07.920Z,10.53
2023-04-27T07:35:08.829Z,10.57
2023-04-27T07:36:09.454Z,10.58
2023-04-27T07:37:09.966Z,10.57
2023-04-27T07:38:10.774Z,10.46
2023-04-27T07:39:11.379Z,10.48
2023-04-27T07:40:12.008Z,10.43
2023-04-27T07:41:12.846Z,10.57
2023-04-27T07:42:12.942Z,10.55
2023-04-27T07:43:14.105Z,10.48
2023-04-27T07:44:14.935Z,10.53
2023-04-27T07:45:15.433Z,10.57
2023-04-27T07:46:16.742Z,10.62
2023-04-27T07:47:16.645Z,10.62
2023-04-27T07:48:17.764Z,10.57
2023-04-27T07:49:17.972Z,10.68
2023-04-27T07:50:18.903Z,10.71
2023-04-27T07:51:19.977Z,10.71
2023-04-27T07:52:19.694Z,10.72
2023-04-27T07:53:21.334Z,10.8
2023-04-27T07:54:22.066Z,10.8
2023-04-27T07:55:22.612Z,10.86
2023-04-27T07:56:22.653Z,10.83
2023-04-27T07:57:23.402Z,10.86
2023-04-27T07:58:23.886Z,10.86
2023-04-27T07:59:24.706Z,10.89
2023-04-27T08:00:25.693Z,10.86
2023-04-27T08:01:27.735Z,10.89
2023-04-27T08:02:27.453Z,10.95
2023-04-27T08:03:28.899Z,11.02
2023-04-27T08:04:29.476Z,10.95
2023-04-27T08:05:29.900Z,10.87
2023-04-27T08:06:31.132Z,10.84
2023-04-27T08:07:30.975Z,10.92
2023-04-27T08:08:30.351Z,11.01
2023-04-27T08:09:31.317Z,10.98
2023-04-27T08:10:31.811Z,11.04
2023-04-27T08:11:32.820Z,11
2023-04-27T08:12:33.719Z,11.08
2023-04-27T08:13:34.433Z,11.12
2023-04-27T08:14:35.402Z,11.05
2023-04-27T08:15:35.947Z,11.13
2023-04-27T08:16:36.767Z,11.15
2023-04-27T08:17:37.533Z,11.07
2023-04-27T08:18:38.309Z,11.16
2023-04-27T08:19:39.076Z,11.1
2023-04-27T08:20:40.006Z,11.16
2023-04-27T08:21:40.968Z,11.16
2023-04-27T08:22:40.925Z,11.07
2023-04-27T08:23:41.995Z,11.05
2023-04-27T08:24:42.700Z,11.12
2023-04-27T08:25:43.393Z,11.05
2023-04-27T08:26:44.352Z,11.15
2023-04-27T08:27:45.271Z,11.05
2023-04-27T08:28:46.013Z,11.15
2023-04-27T08:29:47.198Z,11.18
2023-04-27T08:30:47.673Z,11.16
2023-04-27T08:31:48.110Z,11.16
2023-04-27T08:32:48.722Z,11.15
2023-04-27T08:33:48.993Z,11.08
2023-04-27T08:34:49.906Z,11.15
2023-04-27T08:35:49.936Z,11.2
2023-04-27T08:36:50.452Z,11.26
2023-04-27T08:37:50.765Z,11.22
2023-04-27T08:38:51.105Z,11.22
2023-04-27T08:39:52.008Z,11.33
2023-04-27T08:40:52.708Z,11.26
2023-04-27T08:41:53.618Z,11.23
2023-04-27T08:42:54.384Z,11.4
2023-04-27T08:43:54.884Z,11.3
2023-04-27T08:44:55.835Z,11.33
2023-04-27T08:45:56.155Z,11.37
2023-04-27T08:46:57.238Z,11.4
2023-04-27T08:47:58.045Z,11.37
2023-04-27T08:48:58.070Z,11.34
2023-04-27T08:49:58.971Z,11.37
2023-04-27T08:50:59.476Z,11.37
2023-04-27T08:52:00.183Z,11.44
2023-04-27T08:53:00.690Z,11.37
2023-04-27T08:54:01.804Z,11.34
2023-04-27T08:55:02.498Z,11.33
2023-04-27T08:56:03.222Z,11.34
2023-04-27T08:57:03.876Z,11.38
2023-04-27T08:58:04.658Z,11.31
2023-04-27T08:59:05.176Z,11.34
2023-04-27T09:00:05.836Z,11.38
2023-04-27T09:01:06.736Z,11.43
2023-04-27T09:02:07.824Z,11.4
2023-04-27T09:03:08.745Z,11.41
2023-04-27T09:04:09.600Z,11.43
2023-04-27T09:05:09.765Z,11.44
2023-04-27T09:06:11.763Z,11.43
2023-04-27T09:08:11.009Z,11.48
2023-04-27T09:09:12.618Z,11.53
2023-04-27T09:10:12.130Z,11.45
2023-04-27T09:11:12.855Z,11.51
2023-04-27T09:12:13.778Z,11.6
2023-04-27T09:13:14.519Z,11.52
2023-04-27T09:14:14.847Z,11.56
2023-04-27T09:15:15.784Z,11.6
2023-04-27T09:16:16.408Z,11.58
2023-04-27T09:17:16.798Z,11.55
2023-04-27T09:18:17.780Z,11.68
2023-04-27T09:19:18.558Z,11.7
2023-04-27T09:20:18.515Z,11.56
2023-04-27T09:21:19.429Z,11.58
2023-04-27T09:22:20.226Z,11.62
2023-04-27T09:23:20.741Z,11.63
2023-04-27T09:24:21.650Z,11.68
2023-04-27T09:25:21.942Z,11.59
2023-04-27T09:26:22.679Z,11.65
2023-04-27T09:27:23.336Z,11.53
2023-04-27T09:28:24.055Z,11.51
2023-04-27T09:29:24.556Z,11.65
2023-04-27T09:30:25.865Z,11.56
2023-04-27T09:31:26.721Z,11.55
2023-04-27T09:32:26.725Z,11.56
2023-04-27T09:33:27.582Z,11.55
2023-04-27T09:34:28.284Z,11.59
2023-04-27T09:35:29.024Z,11.45
2023-04-27T09:36:29.959Z,11.43
2023-04-27T09:37:30.214Z,11.41
2023-04-27T09:38:31.111Z,11.52
2023-04-27T09:39:31.860Z,11.45
2023-04-27T09:40:32.643Z,11.52
2023-04-27T09:41:32.585Z,11.53
2023-04-27T09:42:33.697Z,11.52
2023-04-27T09:43:34.455Z,11.56
2023-04-27T09:44:34.962Z,11.59
2023-04-27T09:45:35.956Z,11.59
2023-04-27T09:46:35.804Z,11.6
2023-04-27T09:47:36.982Z,11.73
2023-04-27T09:48:36.792Z,11.77
2023-04-27T09:49:37.745Z,11.71
2023-04-27T09:50:38.806Z,11.77
2023-04-27T09:51:39.568Z,11.77
2023-04-27T09:52:40.682Z,11.83
2023-04-27T09:53:41.427Z,11.89
2023-04-27T09:54:42.643Z,11.97
2023-04-27T09:55:43.367Z,12.07
2023-04-27T09:56:43.959Z,12.07
2023-04-27T09:57:44.533Z,12.23
2023-04-27T09:58:45.040Z,12.29
2023-04-27T09:59:45.785Z,12.43
2023-04-27T10:00:46.849Z,12.39
2023-04-27T10:01:48.390Z,12.61
2023-04-27T10:02:58.856Z,12.68
2023-04-27T10:04:49.640Z,12.81
2023-04-27T10:05:50.248Z,12.83
2023-04-27T10:06:50.811Z,12.98
2023-04-27T10:07:51.504Z,12.98
2023-04-27T10:08:52.248Z,13.16
2023-04-27T10:09:53.155Z,13.19
2023-04-27T10:10:53.475Z,13.26
2023-04-27T10:11:54.247Z,13.2
2023-04-27T10:12:54.374Z,13.28
2023-04-27T10:13:55.581Z,13.46
2023-04-27T10:14:55.711Z,13.58
2023-04-27T10:15:55.726Z,13.75
2023-04-27T10:16:56.736Z,13.82
2023-04-27T10:17:56.547Z,13.89
2023-04-27T10:18:57.448Z,14.05
2023-04-27T10:20:00.832Z,14.25
2023-04-27T10:21:59.099Z,14.38
2023-04-27T10:23:00.058Z,14.3
2023-04-27T10:24:00.977Z,14.33
2023-04-27T10:25:01.722Z,14.43
2023-04-27T10:26:02.431Z,14.43
2023-04-27T10:27:03.349Z,14.36
2023-04-27T10:28:04.017Z,14.33
2023-04-27T10:29:04.162Z,14.41
2023-04-27T10:30:04.433Z,14.41
2023-04-27T10:31:05.598Z,14.37
2023-04-27T10:32:05.470Z,14.45
2023-04-27T10:33:06.174Z,14.48
2023-04-27T10:34:07.218Z,14.62
2023-04-27T10:35:07.931Z,14.66
2023-04-27T10:36:08.485Z,14.55
2023-04-27T10:37:09.029Z,14.59
2023-04-27T10:38:09.781Z,14.82
2023-04-27T10:39:09.743Z,15.02
2023-04-27T10:40:11.051Z,15.08
2023-04-27T10:42:11.250Z,15.11
2023-04-27T10:43:11.423Z,15.14
2023-04-27T10:44:11.546Z,15.29
2023-04-27T10:45:11.859Z,15.41
2023-04-27T10:46:13.247Z,15.84
2023-04-27T10:47:13.883Z,16.03
2023-04-27T10:48:15.369Z,16.28
2023-04-27T10:49:15.754Z,16.47
2023-04-27T10:50:16.516Z,16.69
2023-04-27T10:51:17.636Z,17.01
2023-04-27T10:52:17.581Z,17.14
2023-04-27T10:53:17.935Z,17.41
2023-04-27T10:54:18.244Z,17.78
2023-04-27T10:55:19.024Z,17.66
2023-04-27T10:56:19.524Z,17.76
2023-04-27T10:57:20.421Z,18.02
2023-04-27T10:58:21.632Z,18
2023-04-27T10:59:21.979Z,18.31
2023-04-27T11:00:23.762Z,18.61
2023-04-27T11:01:23.715Z,18.78
2023-04-27T11:02:24.964Z,18.86
2023-04-27T11:03:25.903Z,19.09
2023-04-27T11:04:26.152Z,19.35
2023-04-27T11:06:27.337Z,19.62
2023-04-27T11:07:28.190Z,19.6
2023-04-27T11:08:28.894Z,19.74
2023-04-27T11:09:29.528Z,19.72
2023-04-27T11:10:29.766Z,19.62
2023-04-27T11:11:30.680Z,19.47
2023-04-27T11:12:31.519Z,19.48
2023-04-27T11:13:32.116Z,19.64
2023-04-27T11:14:32.638Z,19.63
2023-04-27T11:15:33.346Z,19.66
2023-04-27T11:16:38.070Z,19.64
2023-04-27T11:19:36.117Z,19.47
2023-04-27T11:20:36.857Z,19.34
2023-04-27T11:21:37.397Z,19.24
2023-04-27T11:22:38.269Z,19.26
2023-04-27T11:23:39.258Z,19.32
2023-04-27T11:24:39.187Z,19.23
2023-04-27T11:25:40.200Z,19.23
2023-04-27T11:26:40.704Z,19.26
2023-04-27T11:27:41.651Z,19.34
2023-04-27T11:28:42.318Z,19.32
2023-04-27T11:29:43.033Z,19.27
2023-04-27T11:30:43.741Z,19.3
2023-04-27T11:31:44.799Z,19.3
2023-04-27T11:32:45.845Z,19.22
2023-04-27T11:33:46.260Z,18.94
2023-04-27T11:34:46.773Z,18.97
2023-04-27T11:35:47.961Z,18.71
2023-04-27T11:36:48.696Z,18.6
2023-04-27T11:37:49.030Z,18.42
2023-04-27T11:38:49.935Z,18.18
2023-04-27T11:39:50.615Z,18.02
2023-04-27T11:40:51.825Z,17.98
2023-04-27T11:41:51.937Z,17.91
2023-04-27T11:42:52.721Z,17.75
2023-04-27T11:43:53.696Z,17.53
2023-04-27T11:44:54.002Z,17.35
2023-04-27T11:45:54.956Z,17.23
2023-04-27T11:46:56.380Z,17.05
2023-04-27T11:47:56.543Z,16.97
2023-04-27T11:48:57.160Z,16.97
2023-04-27T11:49:57.898Z,16.8
2023-04-27T11:50:58.632Z,16.74
2023-04-27T11:51:59.720Z,16.74
2023-04-27T11:53:00.619Z,16.57
2023-04-27T11:54:01.345Z,16.5
2023-04-27T11:55:02.669Z,16.25
2023-04-27T11:56:02.795Z,16.02
2023-04-27T11:57:03.305Z,15.83
2023-04-27T11:58:03.804Z,15.72
2023-04-27T11:59:03.954Z,15.57
2023-04-27T12:00:04.480Z,15.43
2023-04-27T12:01:05.309Z,15.29
2023-04-27T12:02:05.823Z,15.19
2023-04-27T12:03:06.472Z,15.07
2023-04-27T12:04:08.850Z,14.9
2023-04-27T12:05:08.231Z,14.67
2023-04-27T12:06:32.912Z,14.61
2023-04-27T12:08:08.719Z,14.52
2023-04-27T12:09:09.658Z,14.52
2023-04-27T12:10:09.854Z,14.52
2023-04-27T12:11:09.789Z,14.63
2023-04-27T12:12:09.896Z,14.78
2023-04-27T12:13:10.592Z,14.85
2023-04-27T12:14:11.176Z,14.86
2023-04-27T12:15:11.357Z,14.79
2023-04-27T12:16:11.864Z,14.81
2023-04-27T12:17:12.214Z,14.86
2023-04-27T12:18:12.413Z,14.62
2023-04-27T12:19:12.753Z,14.58
2023-04-27T12:20:14.032Z,14.44
2023-04-27T12:21:14.324Z,14.49
2023-04-27T12:22:14.626Z,14.43
2023-04-27T12:23:15.361Z,14.43
2023-04-27T12:24:17.080Z,14.26
2023-04-27T12:25:16.675Z,14.23
2023-04-27T12:26:20.774Z,14.22
2023-04-27T12:28:19.222Z,14.15
2023-04-27T12:29:19.854Z,14.15
2023-04-27T12:30:20.578Z,14.08
2023-04-27T12:31:21.636Z,14.04
2023-04-27T12:32:21.798Z,14.04
2023-04-27T12:33:23.163Z,14.05
2023-04-27T12:34:22.962Z,14.07
2023-04-27T12:35:23.510Z,14.18
2023-04-27T12:36:24.475Z,14.19
2023-04-27T12:37:27.365Z,14.19
2023-04-27T12:38:25.869Z,14.28
2023-04-27T12:39:26.411Z,14.34
2023-04-27T12:40:27.319Z,14.38
2023-04-27T12:41:28.229Z,14.4
2023-04-27T12:42:28.936Z,14.53
2023-04-27T12:43:29.448Z,14.85
2023-04-27T12:44:30.318Z,15.08
2023-04-27T12:45:31.231Z,15.27
2023-04-27T12:46:32.114Z,15.6
2023-04-27T12:48:02.376Z,15.57
2023-04-27T12:49:33.798Z,15.78
2023-04-27T12:50:34.536Z,15.99
2023-04-27T12:51:35.296Z,15.94
2023-04-27T12:52:36.002Z,15.99
2023-04-27T12:53:36.698Z,16.18
2023-04-27T12:54:37.567Z,16.26
2023-04-27T12:55:39.891Z,16.32
2023-04-27T12:57:39.008Z,16.54
2023-04-27T12:58:39.729Z,16.65
2023-04-27T12:59:40.342Z,16.66
2023-04-27T13:00:41.056Z,16.79
2023-04-27T13:01:42.117Z,16.82
2023-04-27T13:02:42.976Z,16.83
2023-04-27T13:03:43.934Z,16.8
2023-04-27T13:04:44.619Z,16.8
2023-04-27T13:05:44.607Z,16.95
2023-04-27T13:06:45.143Z,17.02
2023-04-27T13:07:45.865Z,17.17
2023-04-27T13:08:46.827Z,17.23
2023-04-27T13:09:47.854Z,17.07
2023-04-27T13:10:48.637Z,17.17
2023-04-27T13:11:49.660Z,17.02
2023-04-27T13:12:50.081Z,17.12
2023-04-27T13:13:50.393Z,17.2
2023-04-27T13:14:51.540Z,17.3
2023-04-27T13:15:51.915Z,17.34
2023-04-27T13:16:52.251Z,17.34
2023-04-27T13:17:52.348Z,17.27
2023-04-27T13:18:53.746Z,17.23
2023-04-27T13:19:53.678Z,17.35
2023-04-27T13:20:53.859Z,17.42
2023-04-27T13:21:54.828Z,17.46
2023-04-27T13:22:54.969Z,17.5
2023-04-27T13:23:55.712Z,17.44
2023-04-27T13:24:56.808Z,17.47
2023-04-27T13:25:57.156Z,17.56
2023-04-27T13:26:58.326Z,17.59
2023-04-27T13:27:58.298Z,17.56
2023-04-27T13:28:59.008Z,17.65
2023-04-27T13:29:59.679Z,17.86
2023-04-27T13:31:00.765Z,17.78
2023-04-27T13:32:01.021Z,17.87